createdAt,value
2023-04-10T00:01:39.410Z,0.05
2023-04-10T00:06:41.812Z,0.11
2023-04-10T00:11:43.605Z,0.00
2023-04-10T00:16:45.580Z,-0.02
2023-04-10T00:21:49.542Z,-0.05
2023-04-10T00:26:51.449Z,-0.06
2023-04-10T00:31:53.863Z,-0.02
2023-04-10T00:36:55.978Z,-0.10
2023-04-10T00:41:57.924Z,-0.23
2023-04-10T00:46:59.700Z,-0.29
2023-04-10T00:52:01.676Z,-0.55
2023-04-10T00:57:07.620Z,-0.60
2023-04-10T01:02:11.392Z,-0.59
2023-04-10T01:07:17.784Z,-0.66
2023-04-10T01:12:25.453Z,-0.65
2023-04-10T01:17:38.399Z,-0.67
2023-04-10T01:23:20.797Z,-0.68
2023-04-10T01:29:01.725Z,-0.74
2023-04-10T01:34:15.155Z,-0.75
2023-04-10T01:39:21.979Z,-0.75
2023-04-10T01:44:30.199Z,-0.73
2023-04-10T01:49:33.235Z,-0.72
2023-04-10T01:54:39.143Z,-0.82
2023-04-10T01:59:41.487Z,-0.86
2023-04-10T02:04:44.449Z,-0.93
2023-04-10T02:10:04.850Z,-0.95
2023-04-10T02:15:10.230Z,-0.92
2023-04-10T02:20:12.996Z,-0.96
2023-04-10T02:25:15.618Z,-1.03
2023-04-10T02:30:17.484Z,-1.05
2023-04-10T02:35:19.766Z,-1.22
2023-04-10T02:40:21.772Z,-1.17
2023-04-10T02:45:33.284Z,-1.21
2023-04-10T02:50:35.132Z,-1.06
2023-04-10T02:55:37.052Z,-1.04
2023-04-10T03:00:39.451Z,-1.10
2023-04-10T03:05:49.864Z,-1.27
2023-04-10T03:10:56.569Z,-1.25
2023-04-10T03:15:58.504Z,-1.26
2023-04-10T03:21:02.131Z,-1.28
2023-04-10T03:26:04.813Z,-1.39
2023-04-10T03:31:12.720Z,-1.32
2023-04-10T03:36:17.246Z,-1.28
2023-04-10T03:41:19.080Z,-1.28
2023-04-10T03:46:22.718Z,-1.38
2023-04-10T03:51:26.731Z,-1.45
2023-04-10T03:56:28.539Z,-1.57
2023-04-10T04:01:30.890Z,-1.53
2023-04-10T04:06:37.757Z,-1.59
2023-04-10T04:11:52.014Z,-1.51
2023-04-10T04:17:23.288Z,-1.47
2023-04-10T04:22:43.606Z,-1.44
2023-04-10T04:27:48.152Z,-1.47
2023-04-10T04:33:08.337Z,-1.45
2023-04-10T04:38:43.236Z,-1.50
2023-04-10T04:44:05.869Z,-1.45
2023-04-10T04:49:33.347Z,-1.40
2023-04-10T04:54:57.872Z,-1.38
2023-04-10T05:00:25.762Z,-1.26
2023-04-10T05:05:27.601Z,-1.12
2023-04-10T05:10:52.635Z,-1.04
2023-04-10T05:16:27.475Z,-0.90
2023-04-10T05:21:49.716Z,-0.66
2023-04-10T05:27:10.446Z,-0.43
2023-04-10T05:32:30.900Z,-0.21
2023-04-10T05:37:53.018Z,-0.01
2023-04-10T05:43:18.021Z,0.21
2023-04-10T05:48:41.289Z,0.44
2023-04-10T05:53:52.334Z,0.64
2023-04-10T05:59:23.847Z,0.62
2023-04-10T06:04:34.588Z,0.78
2023-04-10T06:09:36.817Z,1.07
2023-04-10T06:14:41.437Z,1.39
2023-04-10T06:19:43.828Z,1.68
2023-04-10T06:24:45.856Z,2.01
2023-04-10T06:29:47.843Z,2.42
2023-04-10T06:34:51.846Z,2.73
2023-04-10T06:40:06.073Z,3.03
2023-04-10T06:45:08.777Z,3.34
2023-04-10T06:50:10.946Z,3.62
2023-04-10T06:55:13.094Z,4.00
2023-04-10T07:00:15.519Z,4.34
2023-04-10T07:05:17.712Z,4.71
2023-04-10T07:10:19.619Z,5.10
2023-04-10T07:15:21.900Z,5.71
2023-04-10T07:20:23.630Z,6.07
2023-04-10T07:25:25.382Z,6.41
2023-04-10T07:30:27.075Z,6.67
2023-04-10T07:35:28.695Z,6.87
2023-04-10T07:40:30.351Z,7.09
2023-04-10T07:45:32.408Z,7.32
2023-04-10T07:50:34.134Z,7.63
2023-04-10T07:55:39.754Z,8.13
2023-04-10T08:00:41.539Z,8.71
2023-04-10T08:05:43.212Z,9.25
2023-04-10T08:10:44.841Z,9.24
2023-04-10T08:15:46.522Z,9.68
2023-04-10T08:20:48.152Z,10.10
2023-04-10T08:25:49.963Z,10.58
2023-04-10T08:30:53.643Z,10.76
2023-04-10T08:35:55.500Z,11.06
2023-04-10T08:40:57.909Z,11.53
2023-04-10T08:45:59.550Z,11.80
2023-04-10T08:51:04.363Z,11.97
2023-04-10T08:56:07.651Z,12.25
2023-04-10T09:01:09.867Z,12.37
2023-04-10T09:06:11.558Z,12.66
2023-04-10T09:11:13.459Z,12.31
2023-04-10T09:16:15.585Z,12.79
2023-04-10T09:21:22.066Z,12.79
2023-04-10T09:26:24.514Z,12.91
2023-04-10T09:31:32.433Z,12.66
2023-04-10T09:36:34.151Z,13.44
2023-04-10T09:41:46.699Z,13.71
2023-04-10T09:46:51.960Z,14.19
2023-04-10T09:51:53.740Z,14.06
2023-04-10T09:56:56.544Z,13.76
2023-04-10T10:01:58.777Z,13.86
2023-04-10T10:07:00.947Z,14.34
2023-04-10T10:12:04.068Z,14.59
2023-04-10T10:17:10.427Z,14.95
2023-04-10T10:22:13.203Z,15.07
2023-04-10T10:27:18.076Z,15.70
2023-04-10T10:32:21.153Z,16.05
2023-04-10T10:37:23.833Z,15.38
2023-04-10T10:42:30.167Z,16.20
2023-04-10T10:47:34.390Z,15.92
2023-04-10T10:52:52.985Z,16.23
2023-04-10T10:57:56.038Z,16.54
2023-04-10T11:03:21.115Z,17.48
2023-04-10T11:08:43.346Z,18.30
2023-04-10T11:13:56.343Z,20.24
2023-04-10T11:19:13.195Z,21.37
2023-04-10T11:24:16.965Z,21.70
2023-04-10T11:29:27.907Z,22.26
2023-04-10T11:34:36.448Z,24.17
2023-04-10T11:39:38.080Z,23.31
2023-04-10T11:44:40.798Z,24.64
2023-04-10T11:49:42.604Z,26.60
2023-04-10T11:54:49.107Z,23.77
2023-04-10T11:59:51.517Z,22.55
2023-04-10T12:04:59.298Z,22.17
2023-04-10T12:10:02.045Z,24.11
2023-04-10T12:15:23.452Z,23.41
2023-04-10T12:20:27.812Z,24.48
2023-04-10T12:25:29.444Z,25.86
2023-04-10T12:30:31.149Z,24.01
2023-04-10T12:35:45.106Z,22.65
2023-04-10T12:41:00.596Z,26.49
2023-04-10T12:46:03.172Z,24.77
2023-04-10T12:51:05.056Z,25.33
2023-04-10T12:56:08.878Z,25.31
2023-04-10T13:01:10.641Z,24.18
2023-04-10T13:06:12.624Z,23.77
2023-04-10T13:11:14.251Z,23.77
2023-04-10T13:16:18.855Z,21.73
2023-04-10T13:21:22.969Z,21.11
2023-04-10T13:26:25.433Z,18.70
2023-04-10T13:31:27.183Z,23.90
2023-04-10T13:36:28.906Z,23.39
2023-04-10T13:41:30.599Z,25.09
2023-04-10T13:46:32.259Z,26.69
2023-04-10T13:51:34.151Z,29.54
2023-04-10T13:56:35.843Z,29.13
2023-04-10T14:01:37.556Z,26.05
2023-04-10T14:06:39.179Z,25.02
2023-04-10T14:11:40.780Z,25.84
2023-04-10T14:16:42.480Z,27.43
2023-04-10T14:21:44.551Z,29.04
2023-04-10T14:26:46.216Z,26.51
2023-04-10T14:31:57.454Z,28.24
2023-04-10T14:36:59.885Z,31.21
2023-04-10T14:42:02.211Z,28.81
2023-04-10T14:47:06.502Z,29.76
2023-04-10T14:52:08.609Z,27.08
2023-04-10T14:57:10.950Z,25.49
2023-04-10T15:02:12.659Z,27.09
2023-04-10T15:07:14.492Z,26.54
2023-04-10T15:12:16.661Z,26.41
2023-04-10T15:17:22.187Z,23.75
2023-04-10T15:22:24.158Z,19.98
2023-04-10T15:27:25.849Z,18.44
2023-04-10T15:32:28.811Z,17.34
2023-04-10T15:37:30.477Z,16.79
2023-04-10T15:42:33.150Z,16.10
2023-04-10T15:47:34.842Z,15.61
2023-04-10T15:52:36.484Z,15.73
2023-04-10T15:57:38.133Z,15.92
2023-04-10T16:02:39.993Z,15.85
2023-04-10T16:07:43.660Z,15.66
2023-04-10T16:12:45.626Z,15.86
2023-04-10T16:17:47.437Z,15.50
2023-04-10T16:22:49.170Z,15.13
2023-04-10T16:27:50.867Z,14.81
2023-04-10T16:32:52.627Z,14.55
2023-04-10T16:37:54.541Z,13.88
2023-04-10T16:42:56.264Z,13.60
2023-04-10T16:47:57.904Z,13.10
2023-04-10T16:52:59.708Z,12.81
2023-04-10T16:58:01.402Z,12.47
2023-04-10T17:03:03.363Z,12.46
2023-04-10T17:08:05.353Z,12.54
2023-04-10T17:13:07.013Z,12.35
2023-04-10T17:18:08.683Z,12.21
2023-04-10T17:23:11.194Z,11.93
2023-04-10T17:28:12.943Z,11.59
2023-04-10T17:33:14.527Z,11.27
2023-04-10T17:38:16.161Z,11.00
2023-04-10T17:43:17.776Z,10.69
2023-04-10T17:48:19.636Z,10.53
2023-04-10T17:53:21.289Z,10.38
2023-04-10T17:58:22.933Z,10.13
2023-04-10T18:03:24.674Z,9.90
2023-04-10T18:08:26.470Z,9.74
2023-04-10T18:13:28.145Z,9.64
2023-04-10T18:18:29.780Z,9.55
2023-04-10T18:23:33.076Z,9.51
2023-04-10T18:28:36.267Z,9.35
2023-04-10T18:33:37.886Z,9.34
2023-04-10T18:38:42.832Z,9.22
2023-04-10T18:43:57.498Z,9.16
2023-04-10T18:49:05.638Z,9.05
2023-04-10T18:54:07.326Z,8.92
2023-04-10T18:59:08.977Z,8.77
2023-04-10T19:04:11.196Z,8.65
2023-04-10T19:09:13.666Z,8.58
2023-04-10T19:14:15.437Z,8.51
2023-04-10T19:19:17.471Z,8.48
2023-04-10T19:24:19.313Z,8.46
2023-04-10T19:29:21.148Z,8.35
2023-04-10T19:34:23.061Z,8.22
2023-04-10T19:39:25.202Z,8.04
2023-04-10T19:44:27.144Z,7.87
2023-04-10T19:49:33.062Z,7.72
2023-04-10T19:54:35.153Z,7.65
2023-04-10T19:59:37.247Z,7.68
2023-04-10T20:04:39.413Z,7.54
2023-04-10T20:09:41.766Z,7.51
2023-04-10T20:14:44.836Z,7.38
2023-04-10T20:19:46.636Z,7.32
2023-04-10T20:24:48.458Z,7.29
2023-04-10T20:29:50.449Z,7.31
2023-04-10T20:34:52.319Z,7.28
2023-04-10T20:39:54.130Z,7.27
2023-04-10T20:44:56.126Z,7.26
2023-04-10T20:49:58.004Z,7.20
2023-04-10T20:54:59.889Z,7.15
2023-04-10T21:00:01.914Z,7.25
2023-04-10T21:05:04.134Z,7.27
2023-04-10T21:10:06.351Z,7.19
2023-04-10T21:15:08.832Z,7.13
2023-04-10T21:20:11.249Z,7.10
2023-04-10T21:25:13.089Z,7.04
2023-04-10T21:30:15.023Z,6.96
2023-04-10T21:35:17.045Z,6.90
2023-04-10T21:40:18.915Z,6.86
2023-04-10T21:45:20.759Z,7.37
2023-04-10T21:50:25.443Z,7.63
2023-04-10T21:55:27.375Z,7.71
2023-04-10T22:00:29.258Z,7.97
2023-04-10T22:05:31.892Z,8.29
2023-04-10T22:10:34.866Z,8.31
2023-04-10T22:15:36.679Z,8.17
2023-04-10T22:20:38.548Z,8.04
2023-04-10T22:25:40.423Z,8.09
2023-04-10T22:30:42.235Z,8.36
2023-04-10T22:35:44.266Z,8.72
2023-04-10T22:40:46.120Z,8.56
2023-04-10T22:45:48.016Z,8.24
2023-04-10T22:50:49.865Z,7.98
2023-04-10T22:55:51.667Z,7.81
2023-04-10T23:00:53.486Z,7.62
2023-04-10T23:05:55.321Z,7.45
2023-04-10T23:10:57.622Z,7.32
2023-04-10T23:15:59.509Z,7.24
2023-04-10T23:21:05.551Z,7.31
2023-04-10T23:26:07.733Z,7.37
2023-04-10T23:31:09.698Z,7.39
2023-04-10T23:36:11.571Z,7.36
2023-04-10T23:41:13.416Z,7.39
2023-04-10T23:46:15.254Z,7.35
2023-04-10T23:51:17.164Z,7.46
2023-04-10T23:56:19.054Z,7.31
